sensor_id;sensor_type;location;lat;lon;timestamp;temperature;humidity
52127;DHT22;38120;53.176;6.614;2022-08-21T00:01:23;15.80;99.90
52127;DHT22;38120;53.176;6.614;2022-08-21T00:03:49;15.70;99.90
52127;DHT22;38120;53.176;6.614;2022-08-21T00:06:16;15.70;99.90
52127;DHT22;38120;53.176;6.614;2022-08-21T00:08:42;15.60;99.90
52127;DHT22;38120;53.176;6.614;2022-08-21T00:11:08;15.60;99.90
52127;DHT22;38120;53.176;6.614;2022-08-21T00:13:34;15.60;99.90
52127;DHT22;38120;53.176;6.614;2022-08-21T00:16:02;15.60;99.90
52127;DHT22;38120;53.176;6.614;2022-08-21T00:18:28;15.50;99.90
52127;DHT22;38120;53.176;6.614;2022-08-21T00:20:54;15.50;99.90
52127;DHT22;38120;53.176;6.614;2022-08-21T00:23:20;15.50;99.90
52127;DHT22;38120;53.176;6.614;2022-08-21T00:25:46;15.40;99.90
52127;DHT22;38120;53.176;6.614;2022-08-21T00:28:12;15.40;99.90
52127;DHT22;38120;53.176;6.614;2022-08-21T00:30:39;15.30;99.90
52127;DHT22;38120;53.176;6.614;2022-08-21T00:33:06;15.30;99.90
52127;DHT22;38120;53.176;6.614;2022-08-21T00:35:35;15.30;99.90
52127;DHT22;38120;53.176;6.614;2022-08-21T00:38:03;15.30;99.90
52127;DHT22;38120;53.176;6.614;2022-08-21T00:40:37;15.30;99.90
52127;DHT22;38120;53.176;6.614;2022-08-21T00:43:04;15.40;99.90
52127;DHT22;38120;53.176;6.614;2022-08-21T00:45:31;15.20;99.90
52127;DHT22;38120;53.176;6.614;2022-08-21T00:47:57;15.20;99.90
52127;DHT22;38120;53.176;6.614;2022-08-21T00:50:26;15.10;99.90
52127;DHT22;38120;53.176;6.614;2022-08-21T00:52:53;15.10;99.90
52127;DHT22;38120;53.176;6.614;2022-08-21T00:55:20;15.10;99.90
52127;DHT22;38120;53.176;6.614;2022-08-21T00:57:51;15.10;99.90
52127;DHT22;38120;53.176;6.614;2022-08-21T01:00:20;15.10;99.90
52127;DHT22;38120;53.176;6.614;2022-08-21T01:02:47;15.00;99.90
52127;DHT22;38120;53.176;6.614;2022-08-21T01:05:13;15.00;99.90
52127;DHT22;38120;53.176;6.614;2022-08-21T01:07:40;14.90;99.90
52127;DHT22;38120;53.176;6.614;2022-08-21T01:10:07;14.90;99.90
52127;DHT22;38120;53.176;6.614;2022-08-21T01:12:33;14.90;99.90
52127;DHT22;38120;53.176;6.614;2022-08-21T01:15:01;14.90;99.90
52127;DHT22;38120;53.176;6.614;2022-08-21T01:17:27;14.80;99.90
52127;DHT22;38120;53.176;6.614;2022-08-21T01:19:57;14.80;99.90
52127;DHT22;38120;53.176;6.614;2022-08-21T01:22:22;14.80;99.90
52127;DHT22;38120;53.176;6.614;2022-08-21T01:24:48;14.90;99.90
52127;DHT22;38120;53.176;6.614;2022-08-21T01:27:15;14.80;99.90
52127;DHT22;38120;53.176;6.614;2022-08-21T01:29:53;14.80;99.90
52127;DHT22;38120;53.176;6.614;2022-08-21T01:32:20;14.80;99.90
52127;DHT22;38120;53.176;6.614;2022-08-21T01:34:47;14.80;99.90
52127;DHT22;38120;53.176;6.614;2022-08-21T01:37:14;14.80;99.90
52127;DHT22;38120;53.176;6.614;2022-08-21T01:39:41;14.70;99.90
52127;DHT22;38120;53.176;6.614;2022-08-21T01:42:07;14.70;99.90
52127;DHT22;38120;53.176;6.614;2022-08-21T01:44:33;14.70;99.90
52127;DHT22;38120;53.176;6.614;2022-08-21T01:47:03;14.70;99.90
52127;DHT22;38120;53.176;6.614;2022-08-21T01:49:29;14.70;99.90
52127;DHT22;38120;53.176;6.614;2022-08-21T01:51:55;14.70;99.90
52127;DHT22;38120;53.176;6.614;2022-08-21T01:54:21;14.70;99.90
52127;DHT22;38120;53.176;6.614;2022-08-21T01:56:50;14.70;99.90
52127;DHT22;38120;53.176;6.614;2022-08-21T01:59:17;14.80;99.90
52127;DHT22;38120;53.176;6.614;2022-08-21T02:01:43;14.80;99.90
52127;DHT22;38120;53.176;6.614;2022-08-21T02:04:10;15.80;99.90
52127;DHT22;38120;53.176;6.614;2022-08-21T02:06:37;14.80;99.90
52127;DHT22;38120;53.176;6.614;2022-08-21T02:09:04;14.80;99.90
52127;DHT22;38120;53.176;6.614;2022-08-21T02:11:31;14.80;99.90
52127;DHT22;38120;53.176;6.614;2022-08-21T02:13:59;14.80;99.90
52127;DHT22;38120;53.176;6.614;2022-08-21T02:16:25;14.80;99.90
52127;DHT22;38120;53.176;6.614;2022-08-21T02:18:51;14.80;99.90
52127;DHT22;38120;53.176;6.614;2022-08-21T02:21:20;14.90;99.90
52127;DHT22;38120;53.176;6.614;2022-08-21T02:23:45;14.90;99.90
52127;DHT22;38120;53.176;6.614;2022-08-21T02:26:12;14.90;99.90
52127;DHT22;38120;53.176;6.614;2022-08-21T02:28:41;14.90;99.90
52127;DHT22;38120;53.176;6.614;2022-08-21T02:31:07;14.90;99.90
52127;DHT22;38120;53.176;6.614;2022-08-21T02:33:33;14.90;99.90
52127;DHT22;38120;53.176;6.614;2022-08-21T02:35:59;14.90;99.90
52127;DHT22;38120;53.176;6.614;2022-08-21T02:38:28;15.00;99.90
52127;DHT22;38120;53.176;6.614;2022-08-21T02:40:56;14.90;99.90
52127;DHT22;38120;53.176;6.614;2022-08-21T02:43:23;14.90;99.90
52127;DHT22;38120;53.176;6.614;2022-08-21T02:45:50;14.90;99.90
52127;DHT22;38120;53.176;6.614;2022-08-21T02:48:19;14.90;99.90
52127;DHT22;38120;53.176;6.614;2022-08-21T02:50:47;14.90;99.90
52127;DHT22;38120;53.176;6.614;2022-08-21T02:53:15;15.00;99.90
52127;DHT22;38120;53.176;6.614;2022-08-21T02:55:46;15.00;99.90
52127;DHT22;38120;53.176;6.614;2022-08-21T02:58:14;14.90;99.90
52127;DHT22;38120;53.176;6.614;2022-08-21T03:00:40;14.90;99.90
52127;DHT22;38120;53.176;6.614;2022-08-21T03:03:06;14.90;99.90
52127;DHT22;38120;53.176;6.614;2022-08-21T03:05:33;14.90;99.90
52127;DHT22;38120;53.176;6.614;2022-08-21T03:08:01;14.80;99.90
52127;DHT22;38120;53.176;6.614;2022-08-21T03:10:28;14.80;99.90
52127;DHT22;38120;53.176;6.614;2022-08-21T03:12:54;14.80;99.90
52127;DHT22;38120;53.176;6.614;2022-08-21T03:15:22;14.80;99.90
52127;DHT22;38120;53.176;6.614;2022-08-21T03:17:51;14.80;99.90
52127;DHT22;38120;53.176;6.614;2022-08-21T03:20:21;14.80;99.90
52127;DHT22;38120;53.176;6.614;2022-08-21T03:22:50;14.80;99.90
52127;DHT22;38120;53.176;6.614;2022-08-21T03:25:16;14.80;99.90
52127;DHT22;38120;53.176;6.614;2022-08-21T03:27:44;14.80;99.90
52127;DHT22;38120;53.176;6.614;2022-08-21T03:30:10;14.80;99.90
52127;DHT22;38120;53.176;6.614;2022-08-21T03:32:36;14.70;99.90
52127;DHT22;38120;53.176;6.614;2022-08-21T03:35:03;14.70;99.90
52127;DHT22;38120;53.176;6.614;2022-08-21T03:37:29;14.70;99.90
52127;DHT22;38120;53.176;6.614;2022-08-21T03:39:55;14.70;99.90
52127;DHT22;38120;53.176;6.614;2022-08-21T03:42:21;14.70;99.90
52127;DHT22;38120;53.176;6.614;2022-08-21T03:44:47;14.70;99.90
52127;DHT22;38120;53.176;6.614;2022-08-21T03:47:12;14.70;99.90
52127;DHT22;38120;53.176;6.614;2022-08-21T03:49:38;14.60;99.90
52127;DHT22;38120;53.176;6.614;2022-08-21T03:52:04;14.60;99.90
52127;DHT22;38120;53.176;6.614;2022-08-21T03:54:37;14.60;99.90
52127;DHT22;38120;53.176;6.614;2022-08-21T03:57:05;14.60;99.90
52127;DHT22;38120;53.176;6.614;2022-08-21T03:59:31;14.60;99.90
52127;DHT22;38120;53.176;6.614;2022-08-21T04:01:59;14.60;99.90
52127;DHT22;38120;53.176;6.614;2022-08-21T04:04:27;14.60;99.90
52127;DHT22;38120;53.176;6.614;2022-08-21T04:06:54;14.60;99.90
52127;DHT22;38120;53.176;6.614;2022-08-21T04:09:20;14.60;99.90
52127;DHT22;38120;53.176;6.614;2022-08-21T04:11:48;15.10;99.90
52127;DHT22;38120;53.176;6.614;2022-08-21T04:14:15;14.50;99.90
52127;DHT22;38120;53.176;6.614;2022-08-21T04:16:41;14.60;99.90
52127;DHT22;38120;53.176;6.614;2022-08-21T04:19:08;14.50;99.90
52127;DHT22;38120;53.176;6.614;2022-08-21T04:21:35;14.50;99.90
52127;DHT22;38120;53.176;6.614;2022-08-21T04:24:04;14.50;99.90
52127;DHT22;38120;53.176;6.614;2022-08-21T04:26:29;14.50;99.90
52127;DHT22;38120;53.176;6.614;2022-08-21T04:28:56;14.50;99.90
52127;DHT22;38120;53.176;6.614;2022-08-21T04:31:23;14.50;99.90
52127;DHT22;38120;53.176;6.614;2022-08-21T04:33:50;14.50;99.90
52127;DHT22;38120;53.176;6.614;2022-08-21T04:36:20;14.50;99.90
52127;DHT22;38120;53.176;6.614;2022-08-21T04:38:46;14.50;99.90
52127;DHT22;38120;53.176;6.614;2022-08-21T04:41:11;14.50;99.90
52127;DHT22;38120;53.176;6.614;2022-08-21T04:43:38;14.60;99.90
52127;DHT22;38120;53.176;6.614;2022-08-21T04:46:04;14.60;99.90
52127;DHT22;38120;53.176;6.614;2022-08-21T04:48:31;14.60;99.90
52127;DHT22;38120;53.176;6.614;2022-08-21T04:51:06;14.60;99.90
52127;DHT22;38120;53.176;6.614;2022-08-21T04:56:02;14.60;99.90
52127;DHT22;38120;53.176;6.614;2022-08-21T04:58:34;14.60;99.90
52127;DHT22;38120;53.176;6.614;2022-08-21T05:01:01;14.60;99.90
52127;DHT22;38120;53.176;6.614;2022-08-21T05:03:28;14.70;99.90
52127;DHT22;38120;53.176;6.614;2022-08-21T05:05:53;14.70;99.90
52127;DHT22;38120;53.176;6.614;2022-08-21T05:08:21;14.70;99.90
52127;DHT22;38120;53.176;6.614;2022-08-21T05:10:49;14.70;99.90
52127;DHT22;38120;53.176;6.614;2022-08-21T05:13:15;13.70;99.90
52127;DHT22;38120;53.176;6.614;2022-08-21T05:15:41;14.80;99.90
52127;DHT22;38120;53.176;6.614;2022-08-21T05:18:08;14.80;99.90
52127;DHT22;38120;53.176;6.614;2022-08-21T05:20:34;14.90;99.90
52127;DHT22;38120;53.176;6.614;2022-08-21T05:23:01;14.80;99.90
52127;DHT22;38120;53.176;6.614;2022-08-21T05:25:32;14.90;99.90
52127;DHT22;38120;53.176;6.614;2022-08-21T05:27:58;15.00;99.90
52127;DHT22;38120;53.176;6.614;2022-08-21T05:30:23;15.00;99.90
52127;DHT22;38120;53.176;6.614;2022-08-21T05:32:49;15.00;99.90
52127;DHT22;38120;53.176;6.614;2022-08-21T05:35:21;15.10;99.90
52127;DHT22;38120;53.176;6.614;2022-08-21T05:37:47;15.10;99.90
52127;DHT22;38120;53.176;6.614;2022-08-21T05:40:13;15.20;99.90
52127;DHT22;38120;53.176;6.614;2022-08-21T05:42:39;15.30;99.90
52127;DHT22;38120;53.176;6.614;2022-08-21T05:45:05;15.30;99.90
52127;DHT22;38120;53.176;6.614;2022-08-21T05:47:31;15.40;99.90
52127;DHT22;38120;53.176;6.614;2022-08-21T05:49:56;15.40;99.90
52127;DHT22;38120;53.176;6.614;2022-08-21T05:52:22;15.50;99.90
52127;DHT22;38120;53.176;6.614;2022-08-21T05:54:49;15.70;99.90
52127;DHT22;38120;53.176;6.614;2022-08-21T05:57:14;15.70;99.90
52127;DHT22;38120;53.176;6.614;2022-08-21T05:59:40;15.70;99.90
52127;DHT22;38120;53.176;6.614;2022-08-21T06:02:06;15.80;99.90
52127;DHT22;38120;53.176;6.614;2022-08-21T06:04:37;15.90;99.90
52127;DHT22;38120;53.176;6.614;2022-08-21T06:07:03;16.00;99.90
52127;DHT22;38120;53.176;6.614;2022-08-21T06:09:28;16.10;99.90
52127;DHT22;38120;53.176;6.614;2022-08-21T06:11:54;16.20;99.90
52127;DHT22;38120;53.176;6.614;2022-08-21T06:14:20;16.40;99.90
52127;DHT22;38120;53.176;6.614;2022-08-21T06:16:45;16.40;99.90
52127;DHT22;38120;53.176;6.614;2022-08-21T06:19:12;16.40;99.90
52127;DHT22;38120;53.176;6.614;2022-08-21T06:21:37;16.50;99.90
52127;DHT22;38120;53.176;6.614;2022-08-21T06:24:04;16.60;99.90
52127;DHT22;38120;53.176;6.614;2022-08-21T06:26:30;17.80;99.90
52127;DHT22;38120;53.176;6.614;2022-08-21T06:28:56;16.80;99.90
52127;DHT22;38120;53.176;6.614;2022-08-21T06:31:24;16.90;99.90
52127;DHT22;38120;53.176;6.614;2022-08-21T06:33:51;17.00;99.90
52127;DHT22;38120;53.176;6.614;2022-08-21T06:36:17;17.10;99.90
52127;DHT22;38120;53.176;6.614;2022-08-21T06:38:43;17.20;99.90
52127;DHT22;38120;53.176;6.614;2022-08-21T06:41:09;17.20;99.90
52127;DHT22;38120;53.176;6.614;2022-08-21T06:43:35;17.30;99.90
52127;DHT22;38120;53.176;6.614;2022-08-21T06:46:00;16.40;99.90
52127;DHT22;38120;53.176;6.614;2022-08-21T06:48:26;17.60;99.90
52127;DHT22;38120;53.176;6.614;2022-08-21T06:50:52;17.70;99.90
52127;DHT22;38120;53.176;6.614;2022-08-21T06:53:19;17.80;99.90
52127;DHT22;38120;53.176;6.614;2022-08-21T06:55:46;17.80;99.90
52127;DHT22;38120;53.176;6.614;2022-08-21T06:58:12;17.90;99.90
52127;DHT22;38120;53.176;6.614;2022-08-21T07:00:41;18.00;99.90
52127;DHT22;38120;53.176;6.614;2022-08-21T07:03:07;18.10;99.90
52127;DHT22;38120;53.176;6.614;2022-08-21T07:05:40;18.20;99.90
52127;DHT22;38120;53.176;6.614;2022-08-21T07:08:06;18.30;99.90
52127;DHT22;38120;53.176;6.614;2022-08-21T07:10:32;18.40;99.90
52127;DHT22;38120;53.176;6.614;2022-08-21T07:12:57;18.50;99.90
52127;DHT22;38120;53.176;6.614;2022-08-21T07:15:23;18.50;99.90
52127;DHT22;38120;53.176;6.614;2022-08-21T07:17:49;18.60;99.90
52127;DHT22;38120;53.176;6.614;2022-08-21T07:20:14;19.80;99.90
52127;DHT22;38120;53.176;6.614;2022-08-21T07:22:40;18.70;99.90
52127;DHT22;38120;53.176;6.614;2022-08-21T07:25:07;18.70;99.90
52127;DHT22;38120;53.176;6.614;2022-08-21T07:27:33;18.80;99.90
52127;DHT22;38120;53.176;6.614;2022-08-21T07:29:59;18.90;99.90
52127;DHT22;38120;53.176;6.614;2022-08-21T07:32:25;19.00;99.90
52127;DHT22;38120;53.176;6.614;2022-08-21T07:34:50;19.10;99.90
52127;DHT22;38120;53.176;6.614;2022-08-21T07:37:16;19.20;99.90
52127;DHT22;38120;53.176;6.614;2022-08-21T07:39:42;19.30;99.90
52127;DHT22;38120;53.176;6.614;2022-08-21T07:42:08;19.40;99.90
52127;DHT22;38120;53.176;6.614;2022-08-21T07:44:35;19.50;99.90
52127;DHT22;38120;53.176;6.614;2022-08-21T07:47:01;19.60;99.90
52127;DHT22;38120;53.176;6.614;2022-08-21T07:49:27;19.70;99.90
52127;DHT22;38120;53.176;6.614;2022-08-21T07:51:53;19.70;99.90
52127;DHT22;38120;53.176;6.614;2022-08-21T07:54:20;19.70;99.90
52127;DHT22;38120;53.176;6.614;2022-08-21T07:56:45;19.80;99.90
52127;DHT22;38120;53.176;6.614;2022-08-21T07:59:11;19.90;99.90
52127;DHT22;38120;53.176;6.614;2022-08-21T08:01:37;19.90;99.90
52127;DHT22;38120;53.176;6.614;2022-08-21T08:04:03;20.00;99.90
52127;DHT22;38120;53.176;6.614;2022-08-21T08:06:29;20.00;99.90
52127;DHT22;38120;53.176;6.614;2022-08-21T08:08:56;20.10;99.90
52127;DHT22;38120;53.176;6.614;2022-08-21T08:11:21;20.10;99.90
52127;DHT22;38120;53.176;6.614;2022-08-21T08:13:49;20.20;99.90
52127;DHT22;38120;53.176;6.614;2022-08-21T08:16:15;20.30;99.90
52127;DHT22;38120;53.176;6.614;2022-08-21T08:18:41;20.50;99.90
52127;DHT22;38120;53.176;6.614;2022-08-21T08:21:08;20.60;99.90
52127;DHT22;38120;53.176;6.614;2022-08-21T08:23:34;20.60;99.90
52127;DHT22;38120;53.176;6.614;2022-08-21T08:26:00;20.60;99.90
52127;DHT22;38120;53.176;6.614;2022-08-21T08:28:28;20.70;99.90
52127;DHT22;38120;53.176;6.614;2022-08-21T08:30:54;20.90;99.90
52127;DHT22;38120;53.176;6.614;2022-08-21T08:33:21;21.00;99.90
52127;DHT22;38120;53.176;6.614;2022-08-21T08:35:50;21.00;99.90
52127;DHT22;38120;53.176;6.614;2022-08-21T08:38:20;21.00;99.90
52127;DHT22;38120;53.176;6.614;2022-08-21T08:40:55;21.10;99.90
52127;DHT22;38120;53.176;6.614;2022-08-21T08:43:26;21.20;99.90
52127;DHT22;38120;53.176;6.614;2022-08-21T08:45:53;21.30;99.90
52127;DHT22;38120;53.176;6.614;2022-08-21T08:48:50;21.30;99.90
52127;DHT22;38120;53.176;6.614;2022-08-21T08:51:25;21.40;99.90
52127;DHT22;38120;53.176;6.614;2022-08-21T08:53:59;21.70;99.90
52127;DHT22;38120;53.176;6.614;2022-08-21T08:56:35;21.70;99.90
52127;DHT22;38120;53.176;6.614;2022-08-21T08:59:15;21.60;99.90
52127;DHT22;38120;53.176;6.614;2022-08-21T09:01:43;21.60;99.90
52127;DHT22;38120;53.176;6.614;2022-08-21T09:04:10;21.80;99.90
52127;DHT22;38120;53.176;6.614;2022-08-21T09:14:23;21.40;99.90
52127;DHT22;38120;53.176;6.614;2022-08-21T09:25:34;21.40;99.90
52127;DHT22;38120;53.176;6.614;2022-08-21T09:28:11;21.50;99.90
52127;DHT22;38120;53.176;6.614;2022-08-21T09:30:40;21.30;99.90
52127;DHT22;38120;53.176;6.614;2022-08-21T09:33:07;21.90;99.90
52127;DHT22;38120;53.176;6.614;2022-08-21T09:35:32;21.30;99.90
52127;DHT22;38120;53.176;6.614;2022-08-21T09:38:06;22.10;99.90
52127;DHT22;38120;53.176;6.614;2022-08-21T09:43:07;22.20;99.90
52127;DHT22;38120;53.176;6.614;2022-08-21T09:45:41;22.40;99.90
52127;DHT22;38120;53.176;6.614;2022-08-21T09:48:25;22.60;99.90
52127;DHT22;38120;53.176;6.614;2022-08-21T09:50:52;22.60;99.90
52127;DHT22;38120;53.176;6.614;2022-08-21T09:53:27;22.80;99.90
52127;DHT22;38120;53.176;6.614;2022-08-21T09:58:40;23.10;99.90
52127;DHT22;38120;53.176;6.614;2022-08-21T10:01:23;23.30;99.90
52127;DHT22;38120;53.176;6.614;2022-08-21T10:04:02;23.20;99.90
52127;DHT22;38120;53.176;6.614;2022-08-21T10:06:28;23.20;99.90
52127;DHT22;38120;53.176;6.614;2022-08-21T10:12:05;23.00;99.90
52127;DHT22;38120;53.176;6.614;2022-08-21T10:14:54;23.20;99.90
52127;DHT22;38120;53.176;6.614;2022-08-21T10:20:40;23.50;99.90
52127;DHT22;38120;53.176;6.614;2022-08-21T10:26:00;23.30;99.90
52127;DHT22;38120;53.176;6.614;2022-08-21T10:29:09;23.50;99.90
52127;DHT22;38120;53.176;6.614;2022-08-21T10:37:42;23.70;99.90
52127;DHT22;38120;53.176;6.614;2022-08-21T10:40:20;23.30;99.90
52127;DHT22;38120;53.176;6.614;2022-08-21T10:43:20;23.10;99.90
52127;DHT22;38120;53.176;6.614;2022-08-21T10:54:00;22.30;99.90
52127;DHT22;38120;53.176;6.614;2022-08-21T10:56:35;22.00;99.90
52127;DHT22;38120;53.176;6.614;2022-08-21T11:07:02;21.80;99.90
52127;DHT22;38120;53.176;6.614;2022-08-21T11:09:28;21.80;99.90
52127;DHT22;38120;53.176;6.614;2022-08-21T11:15:41;21.70;99.90
52127;DHT22;38120;53.176;6.614;2022-08-21T11:17:57;21.70;99.90
52127;DHT22;38120;53.176;6.614;2022-08-21T11:23:22;21.60;99.90
52127;DHT22;38120;53.176;6.614;2022-08-21T11:25:58;21.50;99.90
52127;DHT22;38120;53.176;6.614;2022-08-21T11:28:30;21.50;99.90
52127;DHT22;38120;53.176;6.614;2022-08-21T11:38:42;21.20;99.90
52127;DHT22;38120;53.176;6.614;2022-08-21T11:41:36;21.30;99.90
52127;DHT22;38120;53.176;6.614;2022-08-21T11:44:22;21.30;99.90
52127;DHT22;38120;53.176;6.614;2022-08-21T11:47:03;21.30;99.90
52127;DHT22;38120;53.176;6.614;2022-08-21T11:49:34;21.40;99.90
52127;DHT22;38120;53.176;6.614;2022-08-21T12:02:21;22.60;99.90
52127;DHT22;38120;53.176;6.614;2022-08-21T12:04:52;22.40;99.90
52127;DHT22;38120;53.176;6.614;2022-08-21T12:07:40;22.40;99.90
52127;DHT22;38120;53.176;6.614;2022-08-21T12:10:12;22.40;99.90
52127;DHT22;38120;53.176;6.614;2022-08-21T12:12:40;22.40;99.90
52127;DHT22;38120;53.176;6.614;2022-08-21T12:18:39;22.60;99.90
52127;DHT22;38120;53.176;6.614;2022-08-21T12:20:43;22.60;99.90
52127;DHT22;38120;53.176;6.614;2022-08-21T12:25:42;22.90;99.90
52127;DHT22;38120;53.176;6.614;2022-08-21T12:28:15;22.80;99.90
52127;DHT22;38120;53.176;6.614;2022-08-21T12:30:44;22.80;99.90
52127;DHT22;38120;53.176;6.614;2022-08-21T12:33:28;22.60;99.90
52127;DHT22;38120;53.176;6.614;2022-08-21T12:36:10;22.50;99.90
52127;DHT22;38120;53.176;6.614;2022-08-21T12:38:47;22.40;99.90
52127;DHT22;38120;53.176;6.614;2022-08-21T12:41:20;22.70;99.90
52127;DHT22;38120;53.176;6.614;2022-08-21T12:43:53;23.00;99.90
52127;DHT22;38120;53.176;6.614;2022-08-21T12:49:28;22.50;99.90
52127;DHT22;38120;53.176;6.614;2022-08-21T12:54:31;22.30;99.90
52127;DHT22;38120;53.176;6.614;2022-08-21T12:57:02;22.20;99.90
52127;DHT22;38120;53.176;6.614;2022-08-21T12:59:29;22.80;99.90
52127;DHT22;38120;53.176;6.614;2022-08-21T13:01:58;23.40;99.90
52127;DHT22;38120;53.176;6.614;2022-08-21T13:04:38;23.80;99.90
52127;DHT22;38120;53.176;6.614;2022-08-21T13:07:11;23.90;99.90
52127;DHT22;38120;53.176;6.614;2022-08-21T13:09:49;23.50;99.90
52127;DHT22;38120;53.176;6.614;2022-08-21T13:12:17;23.40;99.90
52127;DHT22;38120;53.176;6.614;2022-08-21T13:14:45;23.30;99.90
52127;DHT22;38120;53.176;6.614;2022-08-21T13:17:19;23.20;99.90
52127;DHT22;38120;53.176;6.614;2022-08-21T13:20:01;23.20;99.90
52127;DHT22;38120;53.176;6.614;2022-08-21T13:22:28;23.10;99.90
52127;DHT22;38120;53.176;6.614;2022-08-21T13:24:55;23.20;99.90
52127;DHT22;38120;53.176;6.614;2022-08-21T13:27:27;23.30;99.90
52127;DHT22;38120;53.176;6.614;2022-08-21T13:30:10;23.20;99.90
52127;DHT22;38120;53.176;6.614;2022-08-21T13:32:43;23.10;99.90
52127;DHT22;38120;53.176;6.614;2022-08-21T13:35:23;23.10;99.90
52127;DHT22;38120;53.176;6.614;2022-08-21T13:37:51;23.10;99.90
52127;DHT22;38120;53.176;6.614;2022-08-21T13:40:26;22.90;99.90
52127;DHT22;38120;53.176;6.614;2022-08-21T13:42:53;22.90;99.90
52127;DHT22;38120;53.176;6.614;2022-08-21T13:45:30;22.80;99.90
52127;DHT22;38120;53.176;6.614;2022-08-21T13:47:56;22.80;99.90
52127;DHT22;38120;53.176;6.614;2022-08-21T13:50:25;22.70;99.90
52127;DHT22;38120;53.176;6.614;2022-08-21T13:55:47;22.90;99.90
52127;DHT22;38120;53.176;6.614;2022-08-21T13:58:25;22.90;99.90
52127;DHT22;38120;53.176;6.614;2022-08-21T14:00:51;22.90;99.90
52127;DHT22;38120;53.176;6.614;2022-08-21T14:03:35;23.00;99.90
52127;DHT22;38120;53.176;6.614;2022-08-21T14:06:14;23.10;99.90
52127;DHT22;38120;53.176;6.614;2022-08-21T14:08:42;23.10;99.90
52127;DHT22;38120;53.176;6.614;2022-08-21T14:11:12;23.20;99.90
52127;DHT22;38120;53.176;6.614;2022-08-21T14:16:22;22.90;99.90
52127;DHT22;38120;53.176;6.614;2022-08-21T14:18:55;22.80;99.90
52127;DHT22;38120;53.176;6.614;2022-08-21T14:21:40;22.80;99.90
52127;DHT22;38120;53.176;6.614;2022-08-21T14:24:24;22.90;99.90
52127;DHT22;38120;53.176;6.614;2022-08-21T14:27:05;23.00;99.90
52127;DHT22;38120;53.176;6.614;2022-08-21T14:29:40;23.10;99.90
52127;DHT22;38120;53.176;6.614;2022-08-21T14:32:28;23.10;99.90
52127;DHT22;38120;53.176;6.614;2022-08-21T14:34:56;23.10;99.90
52127;DHT22;38120;53.176;6.614;2022-08-21T14:37:23;23.40;99.90
52127;DHT22;38120;53.176;6.614;2022-08-21T14:39:49;23.90;99.90
52127;DHT22;38120;53.176;6.614;2022-08-21T14:42:14;24.10;99.90
52127;DHT22;38120;53.176;6.614;2022-08-21T14:44:40;23.70;99.90
52127;DHT22;38120;53.176;6.614;2022-08-21T14:47:07;23.50;1.00
52127;DHT22;38120;53.176;6.614;2022-08-21T14:49:33;23.50;48.30
52127;DHT22;38120;53.176;6.614;2022-08-21T14:51:59;23.90;1.00
52127;DHT22;38120;53.176;6.614;2022-08-21T14:54:30;24.10;99.90
52127;DHT22;38120;53.176;6.614;2022-08-21T14:56:57;23.80;99.90
52127;DHT22;38120;53.176;6.614;2022-08-21T14:59:23;23.60;99.90
52127;DHT22;38120;53.176;6.614;2022-08-21T15:01:51;23.70;1.00
52127;DHT22;38120;53.176;6.614;2022-08-21T15:04:17;24.20;1.00
52127;DHT22;38120;53.176;6.614;2022-08-21T15:06:43;24.40;1.00
52127;DHT22;38120;53.176;6.614;2022-08-21T15:09:09;24.60;99.90
52127;DHT22;38120;53.176;6.614;2022-08-21T15:11:35;24.00;99.90
52127;DHT22;38120;53.176;6.614;2022-08-21T15:14:03;23.60;99.90
52127;DHT22;38120;53.176;6.614;2022-08-21T15:16:30;23.50;1.00
52127;DHT22;38120;53.176;6.614;2022-08-21T15:18:58;23.50;99.90
52127;DHT22;38120;53.176;6.614;2022-08-21T15:21:24;23.50;1.00
52127;DHT22;38120;53.176;6.614;2022-08-21T15:23:50;23.70;1.00
52127;DHT22;38120;53.176;6.614;2022-08-21T15:26:16;23.70;99.90
52127;DHT22;38120;53.176;6.614;2022-08-21T15:28:41;23.80;99.90
52127;DHT22;38120;53.176;6.614;2022-08-21T15:31:07;23.60;99.90
52127;DHT22;38120;53.176;6.614;2022-08-21T15:33:33;23.40;99.90
52127;DHT22;38120;53.176;6.614;2022-08-21T15:35:59;23.30;99.90
52127;DHT22;38120;53.176;6.614;2022-08-21T15:38:25;23.10;99.90
52127;DHT22;38120;53.176;6.614;2022-08-21T15:40:51;23.20;99.90
52127;DHT22;38120;53.176;6.614;2022-08-21T15:43:26;23.00;99.90
52127;DHT22;38120;53.176;6.614;2022-08-21T15:45:53;23.10;99.90
52127;DHT22;38120;53.176;6.614;2022-08-21T15:48:19;23.10;99.90
52127;DHT22;38120;53.176;6.614;2022-08-21T15:50:46;23.20;99.90
52127;DHT22;38120;53.176;6.614;2022-08-21T15:53:12;23.20;99.90
52127;DHT22;38120;53.176;6.614;2022-08-21T15:55:38;23.10;99.90
52127;DHT22;38120;53.176;6.614;2022-08-21T15:58:04;22.90;99.90
52127;DHT22;38120;53.176;6.614;2022-08-21T16:00:31;22.80;99.90
52127;DHT22;38120;53.176;6.614;2022-08-21T16:02:59;22.70;99.90
52127;DHT22;38120;53.176;6.614;2022-08-21T16:05:25;22.60;99.90
52127;DHT22;38120;53.176;6.614;2022-08-21T16:07:51;22.60;99.90
52127;DHT22;38120;53.176;6.614;2022-08-21T16:10:20;22.50;99.90
52127;DHT22;38120;53.176;6.614;2022-08-21T16:13:02;22.50;99.90
52127;DHT22;38120;53.176;6.614;2022-08-21T16:15:28;22.50;99.90
52127;DHT22;38120;53.176;6.614;2022-08-21T16:17:56;22.50;99.90
52127;DHT22;38120;53.176;6.614;2022-08-21T16:20:27;22.60;99.90
52127;DHT22;38120;53.176;6.614;2022-08-21T16:22:55;22.70;99.90
52127;DHT22;38120;53.176;6.614;2022-08-21T16:25:22;22.70;99.90
52127;DHT22;38120;53.176;6.614;2022-08-21T16:27:55;22.80;99.90
52127;DHT22;38120;53.176;6.614;2022-08-21T16:30:22;22.80;99.90
52127;DHT22;38120;53.176;6.614;2022-08-21T16:32:48;22.80;99.90
52127;DHT22;38120;53.176;6.614;2022-08-21T16:35:16;22.90;99.90
52127;DHT22;38120;53.176;6.614;2022-08-21T16:37:43;22.90;99.90
52127;DHT22;38120;53.176;6.614;2022-08-21T16:40:10;22.90;99.90
52127;DHT22;38120;53.176;6.614;2022-08-21T16:42:37;22.60;99.90
52127;DHT22;38120;53.176;6.614;2022-08-21T16:45:09;22.40;99.90
52127;DHT22;38120;53.176;6.614;2022-08-21T16:47:35;22.30;99.90
52127;DHT22;38120;53.176;6.614;2022-08-21T16:50:01;22.20;99.90
52127;DHT22;38120;53.176;6.614;2022-08-21T16:52:26;22.10;99.90
52127;DHT22;38120;53.176;6.614;2022-08-21T16:54:52;22.00;99.90
52127;DHT22;38120;53.176;6.614;2022-08-21T16:57:18;21.90;99.90
52127;DHT22;38120;53.176;6.614;2022-08-21T16:59:44;21.80;99.90
52127;DHT22;38120;53.176;6.614;2022-08-21T17:04:47;21.70;99.90
52127;DHT22;38120;53.176;6.614;2022-08-21T17:07:13;21.70;99.90
52127;DHT22;38120;53.176;6.614;2022-08-21T17:09:39;21.60;99.90
52127;DHT22;38120;53.176;6.614;2022-08-21T17:12:04;21.60;99.90
52127;DHT22;38120;53.176;6.614;2022-08-21T17:14:32;21.70;99.90
52127;DHT22;38120;53.176;6.614;2022-08-21T17:17:00;21.60;99.90
52127;DHT22;38120;53.176;6.614;2022-08-21T17:19:27;21.70;99.90